Terminal Aerodrome Forecast
Issued by NWS

Home | Current Version | Previous Version | Text Only | Print | Product List | Glossary On
Versions: 1 2 3 4 5 6 7 8 9 10 11 12
641
FTUS45 KABQ 190540
TAFAEG
TAF
KAEG 190540Z 1906/2006 33005KT P6SM BKN200
     FM191500 15008KT P6SM BKN100
     FM192100 18010KT P6SM VCSH BKN080
      TEMPO 2000/2002 VRB20G35KT -TSRA BKN070CB
     FM200200 20008KT P6SM BKN080=

USA.gov is the U.S. government's official web portal to all federal, state and local government web resources and services.